createdAt,value
2022-09-05T00:00:12.306Z,70.78
2022-09-05T00:02:53.629Z,70.72
2022-09-05T00:06:00.119Z,70.99
2022-09-05T00:08:45.275Z,71.60
2022-09-05T00:14:53.682Z,71.37
2022-09-05T00:17:22.745Z,71.51
2022-09-05T00:24:33.058Z,71.70
2022-09-05T00:24:36.714Z,71.93
2022-09-05T00:26:20.753Z,71.63
2022-09-05T00:31:55.941Z,71.75
2022-09-05T00:34:47.447Z,71.73
2022-09-05T00:37:32.140Z,71.69
2022-09-05T00:40:18.314Z,72.00
2022-09-05T00:42:57.216Z,72.30
2022-09-05T00:45:31.938Z,72.21
2022-09-05T00:48:08.648Z,72.46
2022-09-05T00:50:54.385Z,72.69
2022-09-05T00:53:29.757Z,72.47
2022-09-05T00:56:07.885Z,72.29
2022-09-05T00:58:58.405Z,72.41
2022-09-05T01:01:32.107Z,72.51
2022-09-05T01:04:26.209Z,72.82
2022-09-05T01:07:11.621Z,72.53
2022-09-05T01:09:51.271Z,72.77
2022-09-05T01:12:53.453Z,72.49
2022-09-05T01:15:33.693Z,71.93
2022-09-05T01:18:15.065Z,72.54
2022-09-05T01:21:02.781Z,72.51
2022-09-05T01:23:50.593Z,72.99
2022-09-05T01:26:47.906Z,73.22
2022-09-05T01:29:26.434Z,73.29
2022-09-05T01:32:10.333Z,73.47
2022-09-05T01:34:55.551Z,73.85
2022-09-05T01:37:34.013Z,74.00
2022-09-05T01:40:16.821Z,73.77
2022-09-05T01:42:57.100Z,74.23
2022-09-05T01:45:42.613Z,74.34
2022-09-05T01:48:24.212Z,74.20
2022-09-05T01:51:28.795Z,74.09
2022-09-05T01:54:21.357Z,74.51
2022-09-05T01:57:09.258Z,74.08
2022-09-05T01:59:47.956Z,74.02
2022-09-05T02:02:24.372Z,74.09
2022-09-05T02:05:12.974Z,74.48
2022-09-05T02:08:16.907Z,74.39
2022-09-05T02:11:01.300Z,74.52
2022-09-05T02:13:43.722Z,74.38
2022-09-05T02:16:21.509Z,74.46
2022-09-05T02:18:58.469Z,74.65
2022-09-05T02:21:56.730Z,74.47
2022-09-05T02:24:30.168Z,74.52
2022-09-05T02:27:35.906Z,74.77
2022-09-05T02:30:09.129Z,74.82
2022-09-05T02:32:49.313Z,74.65
2022-09-05T02:35:27.131Z,74.10
2022-09-05T02:42:19.570Z,73.86
2022-09-05T02:45:02.202Z,72.91
2022-09-05T02:45:24.340Z,72.96
2022-09-05T02:46:51.071Z,72.28
2022-09-05T02:51:11.183Z,71.83
2022-09-05T02:57:30.217Z,72.00
2022-09-05T02:57:42.874Z,71.32
2022-09-05T02:58:37.977Z,71.53
2022-09-05T03:01:27.971Z,71.30
2022-09-05T03:04:05.346Z,71.21
2022-09-05T03:06:37.970Z,71.21
2022-09-05T03:09:21.048Z,71.07
2022-09-05T03:12:29.199Z,71.03
2022-09-05T03:15:24.496Z,71.36
2022-09-05T03:18:23.636Z,71.53
2022-09-05T03:21:34.242Z,71.90
2022-09-05T03:24:25.326Z,71.86
2022-09-05T03:27:43.463Z,72.12
2022-09-05T03:30:16.870Z,72.24
2022-09-05T03:33:24.268Z,72.44
2022-09-05T03:36:32.615Z,72.48
2022-09-05T03:39:51.944Z,72.43
2022-09-05T03:42:56.928Z,72.54
2022-09-05T03:45:54.396Z,72.66
2022-09-05T03:48:48.138Z,72.99
2022-09-05T03:57:07.028Z,73.25
2022-09-05T03:57:18.760Z,73.33
2022-09-05T03:58:31.881Z,73.15
2022-09-05T04:01:39.887Z,73.05
2022-09-05T04:08:17.304Z,72.97
2022-09-05T04:08:23.703Z,73.06
2022-09-05T04:09:51.645Z,72.99
2022-09-05T04:12:25.884Z,73.44
2022-09-05T04:14:59.593Z,73.13
2022-09-05T04:17:36.686Z,73.56
2022-09-05T04:20:12.750Z,74.05
2022-09-05T04:23:07.398Z,74.39
2022-09-05T04:25:49.521Z,74.77
2022-09-05T04:28:43.024Z,74.94
2022-09-05T04:31:32.124Z,74.89
2022-09-05T04:34:16.837Z,75.19
2022-09-05T04:36:47.956Z,75.44
2022-09-05T04:39:54.004Z,75.89
2022-09-05T04:42:25.664Z,76.09
2022-09-05T04:44:58.710Z,76.38
2022-09-05T04:47:36.084Z,76.53
2022-09-05T04:50:10.420Z,76.63
2022-09-05T04:52:57.096Z,76.83
2022-09-05T04:55:28.140Z,76.55
2022-09-05T04:58:00.954Z,76.82
2022-09-05T05:06:03.086Z,76.96
2022-09-05T05:06:13.324Z,77.16
2022-09-05T05:06:45.870Z,76.92
2022-09-05T05:09:23.927Z,76.89
2022-09-05T05:17:33.030Z,76.37
2022-09-05T05:18:06.249Z,76.49
2022-09-05T05:18:14.995Z,76.39
2022-09-05T05:20:45.410Z,76.41
2022-09-05T05:23:17.922Z,76.23
2022-09-05T05:25:50.861Z,76.13
2022-09-05T05:28:28.423Z,75.86
2022-09-05T05:31:09.468Z,75.76
2022-09-05T05:33:41.771Z,75.46
2022-09-05T05:36:20.124Z,75.20
2022-09-05T05:38:51.720Z,74.95
2022-09-05T05:41:26.201Z,74.63
2022-09-05T05:43:55.214Z,74.11
2022-09-05T05:46:34.168Z,73.96
2022-09-05T05:49:18.737Z,73.20
2022-09-05T05:52:04.482Z,72.63
2022-09-05T05:54:42.403Z,72.48
2022-09-05T05:57:45.217Z,72.37
2022-09-05T06:00:27.469Z,71.68
2022-09-05T06:03:41.769Z,71.65
2022-09-05T06:06:22.857Z,71.38
2022-09-05T06:14:52.607Z,71.11
2022-09-05T06:15:04.152Z,70.50
2022-09-05T06:16:36.666Z,70.29
2022-09-05T06:19:37.563Z,70.15
2022-09-05T06:22:55.935Z,69.69
2022-09-05T06:25:55.812Z,69.20
2022-09-05T06:28:30.647Z,68.72
2022-09-05T06:31:30.536Z,67.49
2022-09-05T06:34:33.395Z,66.90
2022-09-05T06:37:17.624Z,66.32
2022-09-05T06:40:11.875Z,66.08
2022-09-05T06:43:07.304Z,66.08
2022-09-05T06:45:49.507Z,65.19
2022-09-05T06:48:46.033Z,64.92
2022-09-05T06:52:16.566Z,64.83
2022-09-05T06:55:16.967Z,64.70
2022-09-05T06:58:21.781Z,64.29
2022-09-05T07:00:54.235Z,63.59
2022-09-05T07:03:46.379Z,63.06
2022-09-05T07:06:49.434Z,61.32
2022-09-05T07:09:28.457Z,60.78
2022-09-05T07:12:11.740Z,60.32
2022-09-05T07:14:51.535Z,59.25
2022-09-05T07:17:30.845Z,58.64
2022-09-05T07:20:01.864Z,56.92
2022-09-05T07:22:48.001Z,51.85
2022-09-05T07:25:21.095Z,47.32
2022-09-05T07:28:25.901Z,43.86
2022-09-05T07:30:50.324Z,40.42
2022-09-05T07:33:22.994Z,38.85
2022-09-05T07:35:58.535Z,37.24
2022-09-05T07:38:52.414Z,36.25
2022-09-05T07:41:23.574Z,35.52
2022-09-05T07:43:58.178Z,34.01
2022-09-05T07:46:30.154Z,32.60
2022-09-05T07:49:04.503Z,31.42
2022-09-05T07:56:49.330Z,29.59
2022-09-05T07:57:08.356Z,29.34
2022-09-05T07:57:31.425Z,27.79
2022-09-05T08:00:08.243Z,27.28
2022-09-05T08:02:55.330Z,28.68
2022-09-05T08:05:35.040Z,29.03
2022-09-05T08:08:09.572Z,26.51
2022-09-05T08:11:22.173Z,26.72
2022-09-05T08:14:32.709Z,28.84
2022-09-05T08:16:47.915Z,29.78
2022-09-05T08:19:42.410Z,28.53
2022-09-05T08:22:21.329Z,27.94
2022-09-05T08:24:58.556Z,25.86
2022-09-05T08:27:31.858Z,26.05
2022-09-05T08:30:26.475Z,23.77
2022-09-05T08:33:10.636Z,25.28
2022-09-05T08:35:44.942Z,24.32
2022-09-05T08:38:16.091Z,22.63
2022-09-05T08:40:52.612Z,23.01
2022-09-05T08:46:29.179Z,20.52
2022-09-05T08:46:47.177Z,21.22
2022-09-05T08:49:44.009Z,21.66
2022-09-05T08:52:22.964Z,20.41
2022-09-05T08:55:08.418Z,19.87
2022-09-05T08:58:16.702Z,19.96
2022-09-05T09:00:56.485Z,20.32
2022-09-05T09:03:35.532Z,21.70
2022-09-05T09:06:38.753Z,20.17
2022-09-05T09:09:13.958Z,20.94
2022-09-05T09:11:52.829Z,21.22
2022-09-05T09:14:32.673Z,19.64
2022-09-05T09:17:12.915Z,17.85
2022-09-05T09:19:51.368Z,18.42
2022-09-05T09:22:34.861Z,20.38
2022-09-05T09:25:15.511Z,19.63
2022-09-05T09:28:47.834Z,20.00
2022-09-05T09:31:21.408Z,18.83
2022-09-05T09:34:01.167Z,18.62
2022-09-05T09:36:53.178Z,17.00
2022-09-05T09:39:39.708Z,17.88
2022-09-05T09:42:32.727Z,16.58
2022-09-05T09:45:31.733Z,16.26
2022-09-05T09:48:47.641Z,15.60
2022-09-05T09:51:39.165Z,14.03
2022-09-05T09:54:25.858Z,18.07
2022-09-05T09:57:26.572Z,19.01
2022-09-05T10:00:07.654Z,17.99
2022-09-05T10:04:07.325Z,15.56
2022-09-05T10:10:49.905Z,15.78
2022-09-05T10:10:53.336Z,14.28
2022-09-05T10:12:40.435Z,14.11
2022-09-05T10:15:30.745Z,15.25
2022-09-05T10:18:27.867Z,14.54
2022-09-05T10:21:28.854Z,15.21
2022-09-05T10:24:21.187Z,15.60
2022-09-05T10:27:11.414Z,16.23
2022-09-05T10:29:57.589Z,15.52
2022-09-05T10:35:11.772Z,13.71
2022-09-05T10:35:37.755Z,13.51
2022-09-05T10:38:12.369Z,13.81
2022-09-05T10:41:14.617Z,13.42
2022-09-05T10:43:38.803Z,14.40
2022-09-05T10:46:40.052Z,14.64
2022-09-05T10:49:12.113Z,13.73
2022-09-05T10:51:52.085Z,12.38
2022-09-05T10:54:37.928Z,12.07
2022-09-05T10:57:25.377Z,12.35
2022-09-05T11:02:22.649Z,11.03
2022-09-05T11:03:00.700Z,12.05
2022-09-05T11:05:34.774Z,12.72
2022-09-05T11:08:11.550Z,11.79
2022-09-05T11:10:45.201Z,10.52
2022-09-05T11:13:21.553Z,10.44
2022-09-05T11:16:04.233Z,12.73
2022-09-05T11:19:03.611Z,12.92
2022-09-05T11:22:04.267Z,12.47
2022-09-05T11:24:55.712Z,12.23
2022-09-05T11:27:32.657Z,13.71
2022-09-05T11:30:06.591Z,12.89
2022-09-05T11:39:26.298Z,12.49
2022-09-05T11:39:50.314Z,13.10
2022-09-05T11:40:09.002Z,11.88
2022-09-05T11:42:33.083Z,13.99
2022-09-05T11:45:41.150Z,15.53
2022-09-05T11:48:37.917Z,15.99
2022-09-05T11:51:52.370Z,15.49
2022-09-05T11:54:50.158Z,13.26
2022-09-05T11:57:35.125Z,12.17
2022-09-05T12:00:31.849Z,13.22
2022-09-05T12:04:00.041Z,14.22
2022-09-05T12:07:15.551Z,13.81
2022-09-05T12:10:12.064Z,13.31
2022-09-05T12:13:21.699Z,13.36
2022-09-05T12:16:07.470Z,13.62
2022-09-05T12:18:45.835Z,13.27
2022-09-05T12:21:31.673Z,13.05
2022-09-05T12:25:16.665Z,12.32
2022-09-05T12:27:44.450Z,11.77
2022-09-05T12:30:00.402Z,11.96
2022-09-05T12:36:01.328Z,11.72
2022-09-05T12:36:11.387Z,12.15
2022-09-05T12:40:55.286Z,15.24
2022-09-05T12:41:45.235Z,13.45
2022-09-05T12:44:44.732Z,11.19
2022-09-05T12:47:21.215Z,14.45
2022-09-05T12:50:03.544Z,18.39
2022-09-05T12:52:46.494Z,21.72
2022-09-05T12:55:26.212Z,19.12
2022-09-05T13:02:57.505Z,19.04
2022-09-05T13:03:01.950Z,19.99
2022-09-05T13:04:16.108Z,21.12
2022-09-05T13:06:40.863Z,23.12
2022-09-05T13:09:27.755Z,21.42
2022-09-05T13:14:58.992Z,19.80
2022-09-05T13:15:22.681Z,17.47
2022-09-05T13:18:00.430Z,18.66
2022-09-05T13:20:36.681Z,21.32
2022-09-05T13:23:16.373Z,22.14
2022-09-05T13:25:50.587Z,24.08
2022-09-05T13:28:25.217Z,20.18
2022-09-05T13:37:53.545Z,16.00
2022-09-05T13:37:55.088Z,13.82
2022-09-05T13:38:14.306Z,16.77
2022-09-05T13:39:49.210Z,20.44
2022-09-05T13:42:21.221Z,23.03
2022-09-05T13:44:54.246Z,24.42
2022-09-05T13:47:39.806Z,25.93
2022-09-05T13:50:25.670Z,25.87
2022-09-05T13:53:05.099Z,25.02
2022-09-05T13:55:43.402Z,24.81
2022-09-05T13:58:19.319Z,26.07
2022-09-05T14:01:21.129Z,25.92
2022-09-05T14:07:45.877Z,26.20
2022-09-05T14:10:45.867Z,25.89
2022-09-05T14:13:20.103Z,25.25
2022-09-05T14:15:59.018Z,25.97
2022-09-05T14:18:34.039Z,22.63
2022-09-05T14:21:18.117Z,19.46
2022-09-05T14:24:03.344Z,16.17
2022-09-05T14:26:41.092Z,15.31
2022-09-05T14:29:18.308Z,15.58
2022-09-05T14:37:36.373Z,17.20
2022-09-05T14:37:40.628Z,21.16
2022-09-05T14:38:34.564Z,20.29
2022-09-05T14:41:54.665Z,20.76
2022-09-05T14:45:13.929Z,20.03
2022-09-05T14:48:13.848Z,19.27
2022-09-05T14:51:25.220Z,18.03
2022-09-05T14:54:00.309Z,19.15
2022-09-05T15:00:34.518Z,19.69
2022-09-05T15:02:50.743Z,21.34
2022-09-05T15:03:02.057Z,21.43
2022-09-05T15:05:46.722Z,22.03
2022-09-05T15:09:29.951Z,23.48
2022-09-05T15:12:18.373Z,23.01
2022-09-05T15:14:06.103Z,23.89
2022-09-05T15:16:40.377Z,24.39
2022-09-05T15:19:13.468Z,24.98
2022-09-05T15:21:41.897Z,25.67
2022-09-05T15:24:17.449Z,25.37
2022-09-05T15:26:52.969Z,25.92
2022-09-05T15:29:26.832Z,25.62
2022-09-05T15:32:13.796Z,25.13
2022-09-05T15:34:43.757Z,26.34
2022-09-05T15:37:36.673Z,26.81
2022-09-05T15:40:23.833Z,27.00
2022-09-05T15:42:56.169Z,27.79
2022-09-05T15:45:29.723Z,27.99
2022-09-05T15:48:08.771Z,28.05
2022-09-05T15:50:46.096Z,27.56
2022-09-05T15:53:23.158Z,27.75
2022-09-05T15:56:00.936Z,27.59
2022-09-05T15:58:52.552Z,27.86
2022-09-05T16:01:32.670Z,27.72
2022-09-05T16:08:05.507Z,27.42
2022-09-05T16:10:38.521Z,26.81
2022-09-05T16:10:40.965Z,26.99
2022-09-05T16:12:52.221Z,26.33
2022-09-05T16:18:58.608Z,26.72
2022-09-05T16:23:16.012Z,27.08
2022-09-05T16:23:29.335Z,26.68
2022-09-05T16:24:24.688Z,26.96
2022-09-05T16:27:02.308Z,26.58
2022-09-05T16:29:36.218Z,26.38
2022-09-05T16:32:24.639Z,26.33
2022-09-05T16:35:24.895Z,26.56
2022-09-05T16:38:02.888Z,26.91
2022-09-05T16:40:36.864Z,27.60
2022-09-05T16:43:11.884Z,28.42
2022-09-05T16:45:48.139Z,27.87
2022-09-05T16:48:41.174Z,28.39
2022-09-05T16:51:28.737Z,29.04
2022-09-05T16:54:13.449Z,29.88
2022-09-05T16:56:46.564Z,30.57
2022-09-05T16:59:19.315Z,30.90
2022-09-05T17:02:07.962Z,31.07
2022-09-05T17:05:05.021Z,31.37
2022-09-05T17:08:03.956Z,31.46
2022-09-05T17:10:36.598Z,31.98
2022-09-05T17:13:10.758Z,32.92
2022-09-05T17:15:52.571Z,33.34
2022-09-05T17:18:31.826Z,33.73
2022-09-05T17:21:10.749Z,34.33
2022-09-05T17:29:17.678Z,35.38
2022-09-05T17:29:33.141Z,36.18
2022-09-05T17:31:25.161Z,36.00
2022-09-05T17:32:43.577Z,36.28
2022-09-05T17:35:42.717Z,36.69
2022-09-05T17:38:49.724Z,36.97
2022-09-05T17:41:52.058Z,36.88
2022-09-05T17:44:27.685Z,37.46
2022-09-05T17:47:10.234Z,37.63
2022-09-05T17:49:45.911Z,38.08
2022-09-05T17:52:24.290Z,38.18
2022-09-05T17:54:55.482Z,38.80
2022-09-05T17:57:39.015Z,38.85
2022-09-05T18:00:41.282Z,39.51
2022-09-05T18:03:11.154Z,39.83
2022-09-05T18:06:03.974Z,40.11
2022-09-05T18:08:52.828Z,40.28
2022-09-05T18:11:36.347Z,40.53
2022-09-05T18:14:50.279Z,41.10
2022-09-05T18:17:50.890Z,41.36
2022-09-05T18:20:27.504Z,41.65
2022-09-05T18:23:18.295Z,41.85
2022-09-05T18:26:02.413Z,42.06
2022-09-05T18:28:35.440Z,42.39
2022-09-05T18:31:43.395Z,42.60
2022-09-05T18:34:41.577Z,42.58
2022-09-05T18:37:47.997Z,42.96
2022-09-05T18:40:44.203Z,43.20
2022-09-05T18:43:30.644Z,44.29
2022-09-05T18:46:05.292Z,44.23
2022-09-05T18:49:15.902Z,44.93
2022-09-05T18:51:49.236Z,44.66
2022-09-05T18:54:20.647Z,44.31
2022-09-05T18:57:26.620Z,44.64
2022-09-05T18:59:52.054Z,44.47
2022-09-05T19:02:51.495Z,44.95
2022-09-05T19:05:28.736Z,44.83
2022-09-05T19:08:29.281Z,45.33
2022-09-05T19:11:27.532Z,45.25
2022-09-05T19:14:25.606Z,45.14
2022-09-05T19:17:03.422Z,45.29
2022-09-05T19:20:33.900Z,45.56
2022-09-05T19:23:10.779Z,45.41
2022-09-05T19:25:44.827Z,45.55
2022-09-05T19:36:44.726Z,45.71
2022-09-05T19:36:48.647Z,46.07
2022-09-05T19:37:09.251Z,45.89
2022-09-05T19:43:51.187Z,46.37
2022-09-05T19:47:44.521Z,46.69
2022-09-05T19:47:49.885Z,47.16
2022-09-05T19:48:35.284Z,47.40
2022-09-05T19:51:16.346Z,47.53
2022-09-05T19:53:48.901Z,47.38
2022-09-05T19:56:44.623Z,47.59
2022-09-05T19:59:22.441Z,47.83
2022-09-05T20:01:53.186Z,48.13
2022-09-05T20:04:24.015Z,48.33
2022-09-05T20:06:52.525Z,48.20
2022-09-05T20:09:43.021Z,47.92
2022-09-05T20:12:22.114Z,48.43
2022-09-05T20:14:53.230Z,48.82
2022-09-05T20:17:30.538Z,49.16
2022-09-05T20:20:13.702Z,49.01
2022-09-05T20:22:50.428Z,49.15
2022-09-05T20:25:36.153Z,49.16
2022-09-05T20:28:10.201Z,49.48
2022-09-05T20:30:43.250Z,49.32
2022-09-05T20:33:21.744Z,48.68
2022-09-05T20:39:22.606Z,48.59
2022-09-05T20:43:21.594Z,48.81
2022-09-05T20:43:32.445Z,49.44
2022-09-05T20:44:42.324Z,49.55
2022-09-05T20:48:31.814Z,49.78
2022-09-05T20:54:13.817Z,49.82
2022-09-05T20:54:17.838Z,49.83
2022-09-05T20:55:48.694Z,49.85
2022-09-05T20:58:24.690Z,49.33
2022-09-05T21:01:21.163Z,49.85
2022-09-05T21:03:57.377Z,49.60
2022-09-05T21:06:41.332Z,49.71
2022-09-05T21:09:17.764Z,49.76
2022-09-05T21:11:56.065Z,50.22
2022-09-05T21:14:30.573Z,50.05
2022-09-05T21:17:14.750Z,50.49
2022-09-05T21:19:53.160Z,50.16
2022-09-05T21:22:26.279Z,50.28
2022-09-05T21:25:15.479Z,50.54
2022-09-05T21:27:56.377Z,50.75
2022-09-05T21:30:30.640Z,50.41
2022-09-05T21:33:06.026Z,50.17
2022-09-05T21:35:42.524Z,50.10
2022-09-05T21:38:14.198Z,50.06
2022-09-05T21:40:52.071Z,49.74
2022-09-05T21:47:34.599Z,49.56
2022-09-05T21:47:48.432Z,49.29
2022-09-05T21:49:01.269Z,49.12
2022-09-05T21:51:30.984Z,48.83
2022-09-05T21:59:14.632Z,48.89
2022-09-05T21:59:27.732Z,48.55
2022-09-05T21:59:47.506Z,48.24
2022-09-05T22:02:16.804Z,47.64
2022-09-05T22:04:47.193Z,47.62
2022-09-05T22:07:30.524Z,47.53
2022-09-05T22:10:16.401Z,47.17
2022-09-05T22:12:51.745Z,47.49
2022-09-05T22:15:27.673Z,47.63
2022-09-05T22:18:26.973Z,47.33
2022-09-05T22:20:51.789Z,47.92
2022-09-05T22:23:44.911Z,47.67
2022-09-05T22:26:15.707Z,47.98
2022-09-05T22:28:49.103Z,48.04
2022-09-05T22:31:19.470Z,48.19
2022-09-05T22:33:51.222Z,48.34
2022-09-05T22:36:20.698Z,48.48
2022-09-05T22:38:50.133Z,48.68
2022-09-05T22:41:29.951Z,49.15
2022-09-05T22:44:00.530Z,49.01
2022-09-05T22:46:29.370Z,49.14
2022-09-05T22:48:57.761Z,49.29
2022-09-05T22:51:26.029Z,49.42
2022-09-05T22:53:54.286Z,49.71
2022-09-05T22:56:38.074Z,49.51
2022-09-05T22:59:09.284Z,49.69
2022-09-05T23:01:38.200Z,50.08
2022-09-05T23:04:06.751Z,50.23
2022-09-05T23:06:38.567Z,50.45
2022-09-05T23:09:07.173Z,50.64
2022-09-05T23:11:35.866Z,50.94
2022-09-05T23:14:08.401Z,51.25
2022-09-05T23:16:36.876Z,51.53
2022-09-05T23:19:05.374Z,51.89
2022-09-05T23:21:39.096Z,52.19
2022-09-05T23:24:07.500Z,52.32
2022-09-05T23:26:35.930Z,52.57
2022-09-05T23:29:04.264Z,52.77
2022-09-05T23:31:34.008Z,52.91
2022-09-05T23:34:02.263Z,53.28
2022-09-05T23:36:31.280Z,53.38
2022-09-05T23:38:59.795Z,53.39
2022-09-05T23:41:28.177Z,53.53
2022-09-05T23:43:56.680Z,53.80
2022-09-05T23:46:25.440Z,54.07
2022-09-05T23:48:55.433Z,54.48
2022-09-05T23:51:23.668Z,54.60
2022-09-05T23:53:52.067Z,54.75
2022-09-05T23:56:20.456Z,54.74
2022-09-05T23:58:49.089Z,55.01
